Time;durP1;ratioP1;P1;durP2;ratioP2;P2;SDS_P1;SDS_P2;PMS_P1;PMS_P2;Temp;Humidity;BMP_temperature;BMP_pressure;BME280_temperature;BME280_humidity;BME280_pressure;Samples;Min_cycle;Max_cycle;Signal;HPM_P1;HPM_P2
2022/11/27 00:01:18;;;;;;;11.25;4.70;;;;;;;5.34;100.00;102544.13;6279384;22;20020;-76
2022/11/27 00:03:45;;;;;;;12.95;4.85;;;;;;;5.33;100.00;102546.03;6280982;22;20008;-77
2022/11/27 00:06:15;;;;;;;15.55;4.88;;;;;;;5.32;100.00;102543.72;6280258;22;20016;-76
2022/11/27 00:08:43;;;;;;;17.85;4.80;;;;;;;5.33;100.00;102538.09;6280775;22;20028;-76
2022/11/27 00:11:18;;;;;;;9.40;3.97;;;;;;;5.33;100.00;102532.06;6280381;22;20019;-76
2022/11/27 00:13:45;;;;;;;12.50;4.10;;;;;;;5.34;100.00;102523.78;6280923;22;20498;-75
2022/11/27 00:16:13;;;;;;;9.63;4.22;;;;;;;5.34;100.00;102523.78;6279761;22;20095;-76
2022/11/27 00:18:40;;;;;;;11.40;5.15;;;;;;;5.34;100.00;102518.50;6253242;22;20035;-76
2022/11/27 00:21:12;;;;;;;10.13;4.65;;;;;;;5.34;100.00;102523.00;6253376;22;20576;-76
2022/11/27 00:23:39;;;;;;;11.35;4.28;;;;;;;5.34;100.00;102512.44;6279741;22;20047;-77
2022/11/27 00:26:06;;;;;;;15.45;4.28;;;;;;;5.35;100.00;102513.97;6280744;22;20048;-77
2022/11/27 00:28:33;;;;;;;16.40;4.82;;;;;;;5.33;100.00;102498.47;6279791;22;20449;-76
2022/11/27 00:31:07;;;;;;;13.00;4.38;;;;;;;5.33;100.00;102501.13;6280015;22;20080;-77
2022/11/27 00:33:36;;;;;;;14.65;4.78;;;;;;;5.31;100.00;102495.44;6280222;22;20345;-77
2022/11/27 00:36:04;;;;;;;9.98;4.32;;;;;;;5.28;100.00;102488.22;6280321;22;20019;-77
2022/11/27 00:38:31;;;;;;;10.63;4.45;;;;;;;5.28;100.00;102484.84;6279825;22;20016;-77
2022/11/27 00:41:09;;;;;;;12.93;4.78;;;;;;;5.26;100.00;102501.03;6254254;22;20464;-76
2022/11/27 00:43:37;;;;;;;9.23;4.18;;;;;;;5.24;100.00;102503.28;6280266;22;20020;-77
2022/11/27 00:46:14;;;;;;;8.82;4.45;;;;;;;5.23;100.00;102495.72;6279642;22;20434;-77
2022/11/27 00:48:41;;;;;;;13.13;4.43;;;;;;;5.22;100.00;102494.19;6253206;22;20024;-76
2022/11/27 00:51:11;;;;;;;9.30;4.72;;;;;;;5.21;100.00;102503.22;6280421;22;20012;-76
2022/11/27 00:53:37;;;;;;;7.07;4.47;;;;;;;5.19;100.00;102490.41;6252449;22;20054;-76
2022/11/27 00:56:04;;;;;;;9.75;3.80;;;;;;;5.17;100.00;102492.66;6280529;22;20095;-76
2022/11/27 00:58:31;;;;;;;13.93;4.60;;;;;;;5.16;100.00;102493.78;6279483;22;20095;-76
2022/11/27 01:01:00;;;;;;;10.80;4.10;;;;;;;5.14;100.00;102490.72;6279683;22;20024;-77
2022/11/27 01:03:28;;;;;;;12.32;4.53;;;;;;;5.12;100.00;102489.56;6279622;22;20099;-76
2022/11/27 01:05:55;;;;;;;13.73;4.22;;;;;;;5.11;100.00;102495.97;6280336;22;20016;-77
2022/11/27 01:08:22;;;;;;;11.45;4.47;;;;;;;5.09;100.00;102487.63;6279527;22;20099;-76
2022/11/27 01:10:55;;;;;;;19.38;5.18;;;;;;;5.07;100.00;102487.25;6280548;22;20016;-77
2022/11/27 01:13:23;;;;;;;12.52;4.65;;;;;;;5.06;100.00;102485.72;6279151;22;20557;-76
2022/11/27 01:16:01;;;;;;;11.90;4.85;;;;;;;5.05;100.00;102479.69;6252891;22;20042;-77
2022/11/27 01:18:27;;;;;;;10.65;4.40;;;;;;;5.03;100.00;102480.03;6279448;22;20052;-76
2022/11/27 01:20:54;;;;;;;9.15;4.22;;;;;;;5.01;100.00;102469.06;6280199;22;20047;-76
2022/11/27 01:23:21;;;;;;;13.05;5.22;;;;;;;5.02;100.00;102456.63;6279338;22;20016;-77
2022/11/27 01:25:48;;;;;;;12.20;3.97;;;;;;;5.00;100.00;102458.88;6279852;22;20013;-77
2022/11/27 01:28:15;;;;;;;15.48;5.18;;;;;;;4.98;100.00;102453.94;6278648;22;20078;-76
2022/11/27 01:30:42;;;;;;;9.13;4.32;;;;;;;4.98;100.00;102440.00;6252891;22;20020;-76
2022/11/27 01:33:08;;;;;;;11.60;4.28;;;;;;;4.99;100.00;102450.19;6279551;22;20083;-76
2022/11/27 01:35:35;;;;;;;9.10;4.65;;;;;;;4.99;100.00;102450.19;6279711;22;20539;-76
2022/11/27 01:38:02;;;;;;;11.77;4.43;;;;;;;4.98;100.00;102458.47;6281527;22;20021;-76
2022/11/27 01:40:28;;;;;;;10.45;4.57;;;;;;;4.98;100.00;102455.81;6280715;22;20043;-77
2022/11/27 01:42:55;;;;;;;11.05;5.05;;;;;;;4.99;100.00;102444.91;6280252;22;20088;-76
2022/11/27 01:45:22;;;;;;;13.38;4.55;;;;;;;4.99;100.00;102430.97;6252833;22;20016;-76
2022/11/27 01:47:58;;;;;;;17.25;4.90;;;;;;;4.99;100.00;102434.34;6281355;22;20390;-77
2022/11/27 01:50:30;;;;;;;7.07;3.15;;;;;;;4.99;100.00;102423.03;6280385;22;20016;-76
2022/11/27 01:53:05;;;;;;;11.93;4.50;;;;;;;5.00;100.00;102416.63;6281298;22;20066;-76
2022/11/27 01:55:36;;;;;;;14.43;4.57;;;;;;;5.02;100.00;102414.41;6280358;22;20099;-76
2022/11/27 01:58:10;;;;;;;8.20;4.30;;;;;;;5.03;100.00;102400.84;6280618;22;20111;-76
2022/11/27 02:00:37;;;;;;;11.02;4.63;;;;;;;5.02;100.00;102395.94;6280588;22;20020;-77
2022/11/27 02:03:04;;;;;;;15.82;4.70;;;;;;;5.02;100.00;102390.66;6281135;22;20016;-76
2022/11/27 02:05:32;;;;;;;9.77;4.68;;;;;;;5.02;100.00;102390.66;6280242;22;20020;-76
2022/11/27 02:08:04;;;;;;;11.52;4.75;;;;;;;5.02;100.00;102382.72;6281096;22;20016;-76
2022/11/27 02:10:48;;;;;;;9.68;4.43;;;;;;;5.03;100.00;102382.38;6280301;22;20075;-76
2022/11/27 02:13:42;;;;;;;17.90;5.13;;;;;;;5.03;100.00;102382.38;6279940;22;20016;-76
2022/11/27 02:16:44;;;;;;;16.02;4.93;;;;;;;5.06;100.00;102374.84;6253292;22;20092;-76
2022/11/27 02:19:48;;;;;;;9.38;3.97;;;;;;;5.05;100.00;102365.41;6252427;22;20449;-76
2022/11/27 02:22:39;;;;;;;11.45;4.05;;;;;;;5.03;100.00;102358.63;6278016;22;20024;-76
2022/11/27 02:25:06;;;;;;;10.52;4.40;;;;;;;5.03;100.00;102350.69;6281173;22;20095;-77
2022/11/27 02:27:56;;;;;;;6.00;3.58;;;;;;;5.01;100.00;102346.91;6278873;22;20469;-77
2022/11/27 02:30:23;;;;;;;11.90;4.68;;;;;;;4.99;100.00;102349.91;6278746;22;20066;-77
2022/11/27 02:33:10;;;;;;;9.00;4.50;;;;;;;4.99;100.00;102355.19;6281114;22;20012;-76
2022/11/27 02:35:54;;;;;;;11.70;4.65;;;;;;;5.00;100.00;102361.22;6280765;22;20450;-76
2022/11/27 02:38:28;;;;;;;11.95;4.65;;;;;;;4.98;100.00;102360.81;6280197;22;20012;-76
2022/11/27 02:41:04;;;;;;;11.15;4.40;;;;;;;4.98;100.00;102368.72;6252845;22;20020;-77
2022/11/27 02:43:37;;;;;;;8.73;4.15;;;;;;;4.98;100.00;102360.81;6280242;22;20016;-76
2022/11/27 02:46:07;;;;;;;9.57;4.20;;;;;;;4.99;100.00;102365.72;6253899;22;20464;-77
2022/11/27 02:48:47;;;;;;;10.32;4.20;;;;;;;5.00;100.00;102364.63;6280408;22;20258;-76
2022/11/27 02:51:19;;;;;;;7.47;4.68;;;;;;;5.01;100.00;102358.22;6280575;22;20404;-76
2022/11/27 02:54:08;;;;;;;10.73;4.32;;;;;;;5.02;100.00;102356.34;6280806;22;20098;-77
2022/11/27 02:56:38;;;;;;;12.82;4.93;;;;;;;5.01;99.98;102358.22;6280093;22;20048;-77
2022/11/27 02:59:11;;;;;;;13.30;4.80;;;;;;;5.01;99.86;102352.94;6280710;22;20091;-76
2022/11/27 03:01:47;;;;;;;11.90;4.45;;;;;;;5.01;99.76;102352.19;6252975;22;20087;-76
2022/11/27 03:04:20;;;;;;;14.63;4.80;;;;;;;5.00;99.62;102354.06;6280481;22;20022;-76
2022/11/27 03:06:56;;;;;;;15.00;4.47;;;;;;;5.01;99.39;102360.09;6280902;22;20087;-77
2022/11/27 03:09:30;;;;;;;6.68;4.20;;;;;;;5.02;99.11;102353.69;6279437;22;20020;-77
2022/11/27 03:11:57;;;;;;;8.05;4.78;;;;;;;5.03;99.18;102349.94;6281028;22;20077;-77
2022/11/27 03:14:24;;;;;;;9.27;4.72;;;;;;;5.01;99.21;102350.28;6280063;22;20069;-77
2022/11/27 03:17:02;;;;;;;13.00;4.82;;;;;;;4.99;99.01;102336.69;6280759;22;20016;-76
2022/11/27 03:19:38;;;;;;;10.57;4.38;;;;;;;5.00;98.90;102351.41;6280249;22;20016;-77
2022/11/27 03:22:04;;;;;;;11.13;4.22;;;;;;;5.00;98.73;102353.28;6280808;22;20099;-77
2022/11/27 03:24:33;;;;;;;6.95;4.78;;;;;;;4.99;98.63;102359.69;6279598;22;20088;-77
2022/11/27 03:27:01;;;;;;;7.68;4.55;;;;;;;4.98;98.85;102358.94;6281042;22;20016;-77
2022/11/27 03:29:34;;;;;;;9.88;4.85;;;;;;;4.99;98.53;102363.09;6279908;22;20357;-77
2022/11/27 03:32:01;;;;;;;9.82;4.95;;;;;;;4.99;98.47;102357.81;6280552;22;20021;-77
2022/11/27 03:34:28;;;;;;;9.48;4.47;;;;;;;5.00;98.40;102367.25;6279755;22;20020;-77
2022/11/27 03:36:54;;;;;;;11.20;4.88;;;;;;;4.99;98.27;102346.50;6280492;22;20016;-77
2022/11/27 03:39:22;;;;;;;9.27;4.85;;;;;;;4.97;98.20;102346.84;6279126;22;20020;-77
2022/11/27 03:42:09;;;;;;;8.00;4.35;;;;;;;4.97;98.18;102346.84;6280087;22;20043;-77
2022/11/27 03:44:54;;;;;;;13.25;4.93;;;;;;;4.95;98.11;102338.53;6280349;22;20528;-76
2022/11/27 03:47:34;;;;;;;8.40;5.03;;;;;;;4.94;98.00;102339.66;6279886;22;20151;-76
2022/11/27 03:50:28;;;;;;;7.93;4.88;;;;;;;4.94;97.98;102330.97;6280741;22;20016;-77
2022/11/27 03:53:08;;;;;;;12.00;4.78;;;;;;;4.91;97.70;102329.81;6280133;22;20020;-77
2022/11/27 03:55:53;;;;;;;17.33;4.95;;;;;;;4.91;97.74;102329.06;6280343;22;20019;-76
2022/11/27 03:58:29;;;;;;;12.65;4.50;;;;;;;4.89;97.50;102323.38;6279397;22;20398;-77
2022/11/27 04:00:57;;;;;;;11.20;5.03;;;;;;;4.89;97.50;102313.59;6280540;22;20495;-77
2022/11/27 04:03:27;;;;;;;8.90;4.45;;;;;;;4.89;97.55;102320.75;6279760;22;20079;-77
2022/11/27 04:05:54;;;;;;;10.55;4.65;;;;;;;4.89;97.41;102320.75;6280667;22;20071;-77
2022/11/27 04:08:21;;;;;;;5.88;4.15;;;;;;;4.88;97.25;102317.34;6279134;22;20091;-77
2022/11/27 04:10:48;;;;;;;11.98;4.47;;;;;;;4.88;97.08;102317.34;6252999;22;20012;-77
2022/11/27 04:13:14;;;;;;;7.60;4.55;;;;;;;4.88;96.74;102321.88;6279809;22;20128;-77
2022/11/27 04:15:41;;;;;;;10.73;4.07;;;;;;;4.89;96.91;102339.22;6280415;22;20074;-75
2022/11/27 04:18:07;;;;;;;9.90;4.50;;;;;;;4.88;96.55;102335.06;6280460;22;20016;-76
2022/11/27 04:20:34;;;;;;;15.57;4.40;;;;;;;4.87;96.70;102333.53;6252555;22;20390;-77
2022/11/27 04:23:00;;;;;;;8.48;4.50;;;;;;;4.86;96.68;102332.03;6279803;22;20020;-75
2022/11/27 04:25:27;;;;;;;6.18;4.10;;;;;;;4.85;96.36;102339.19;6252195;22;20083;-77
2022/11/27 04:27:54;;;;;;;9.05;3.70;;;;;;;4.84;96.49;102326.34;6280636;22;20012;-77
2022/11/27 04:30:21;;;;;;;10.93;4.35;;;;;;;4.84;96.75;102334.25;6279604;22;20436;-78
2022/11/27 04:32:48;;;;;;;7.68;4.65;;;;;;;4.82;96.45;102326.69;6280302;22;20023;-75
2022/11/27 04:35:18;;;;;;;11.60;4.50;;;;;;;4.82;96.33;102331.97;6279754;22;20020;-75
2022/11/27 04:37:44;;;;;;;14.35;4.28;;;;;;;4.83;96.35;102325.59;6279848;22;20038;-77
2022/11/27 04:40:11;;;;;;;9.05;4.22;;;;;;;4.82;96.08;102321.44;6279930;22;20087;-77
2022/11/27 04:42:38;;;;;;;9.98;4.38;;;;;;;4.82;96.23;102321.44;6279443;22;20099;-77
2022/11/27 04:45:05;;;;;;;8.88;3.60;;;;;;;4.82;96.39;102304.84;6280345;22;20066;-77
2022/11/27 04:47:31;;;;;;;6.75;4.30;;;;;;;4.82;96.18;102302.19;6279355;22;20039;-77
2022/11/27 04:49:58;;;;;;;9.85;4.13;;;;;;;4.82;95.89;102302.19;6280308;22;20099;-78
2022/11/27 04:52:24;;;;;;;8.80;4.18;;;;;;;4.81;95.96;102295.41;6278676;22;20099;-77
2022/11/27 04:54:51;;;;;;;8.32;4.13;;;;;;;4.81;95.95;102296.16;6280178;22;20095;-77
2022/11/27 04:57:25;;;;;;;7.30;3.65;;;;;;;4.82;95.71;102292.41;6279795;22;20023;-77
2022/11/27 04:59:51;;;;;;;7.80;4.13;;;;;;;4.82;95.76;102295.03;6253015;22;20561;-77
2022/11/27 05:02:18;;;;;;;10.00;4.40;;;;;;;4.82;95.62;102292.41;6279306;22;20095;-77
2022/11/27 05:04:44;;;;;;;7.30;4.07;;;;;;;4.83;95.56;102283.38;6252783;22;20095;-77
2022/11/27 05:07:10;;;;;;;7.95;4.10;;;;;;;4.82;95.85;102279.22;6279373;22;20469;-77
2022/11/27 05:09:37;;;;;;;9.88;3.70;;;;;;;4.82;95.54;102281.84;6279492;22;20042;-77
2022/11/27 05:12:04;;;;;;;10.45;3.78;;;;;;;4.84;95.65;102268.28;6281512;22;20020;-77
2022/11/27 05:14:30;;;;;;;12.68;3.92;;;;;;;4.83;95.34;102274.69;6280943;22;20016;-77
2022/11/27 05:16:58;;;;;;;7.20;3.58;;;;;;;4.84;95.40;102270.94;6281345;22;20397;-75
2022/11/27 05:19:27;;;;;;;15.68;3.70;;;;;;;4.84;94.99;102266.41;6280733;22;20017;-77
2022/11/27 05:21:54;;;;;;;11.18;3.80;;;;;;;4.86;95.21;102255.50;6280798;22;20401;-75
2022/11/27 05:24:22;;;;;;;7.43;3.90;;;;;;;4.86;95.25;102256.25;6280766;22;20466;-77
2022/11/27 05:26:48;;;;;;;10.32;3.83;;;;;;;4.88;95.11;102256.66;6281525;22;20482;-77
2022/11/27 05:29:15;;;;;;;9.45;3.60;;;;;;;4.89;94.84;102252.13;6280594;22;20012;-77
2022/11/27 05:31:42;;;;;;;9.00;3.70;;;;;;;4.88;94.77;102248.75;6281094;22;20048;-77
2022/11/27 05:34:09;;;;;;;7.78;3.50;;;;;;;4.90;94.76;102241.22;6280825;22;20016;-77
2022/11/27 05:36:36;;;;;;;9.63;3.35;;;;;;;4.90;94.85;102241.22;6280379;22;20087;-77
2022/11/27 05:39:05;;;;;;;5.40;3.15;;;;;;;4.91;94.93;102234.06;6281116;22;20020;-77
2022/11/27 05:41:33;;;;;;;11.27;3.53;;;;;;;4.93;94.72;102243.13;6279453;22;20091;-77
2022/11/27 05:43:59;;;;;;;5.47;3.03;;;;;;;4.93;94.74;102239.72;6281263;22;20070;-75
2022/11/27 05:46:26;;;;;;;5.35;3.75;;;;;;;4.93;94.38;102240.50;6280419;22;20016;-76
2022/11/27 05:48:53;;;;;;;3.63;3.00;;;;;;;4.94;94.26;102243.88;6280580;22;20506;-75
2022/11/27 05:51:19;;;;;;;11.52;3.75;;;;;;;4.95;94.15;102232.97;6280318;22;20098;-75
2022/11/27 05:53:46;;;;;;;7.90;3.53;;;;;;;4.96;94.60;102223.94;6281259;22;20075;-76
2022/11/27 05:56:15;;;;;;;7.07;3.35;;;;;;;4.95;94.31;102235.63;6280724;22;20016;-75
2022/11/27 05:58:43;;;;;;;8.88;3.20;;;;;;;4.97;94.58;102235.25;6281210;22;20075;-77
2022/11/27 06:01:12;;;;;;;9.30;3.55;;;;;;;4.96;94.89;102231.09;6280692;22;20095;-76
2022/11/27 06:03:38;;;;;;;6.07;3.22;;;;;;;4.96;95.11;102231.09;6280146;22;20012;-75
2022/11/27 06:06:10;;;;;;;5.13;2.90;;;;;;;4.95;95.41;102226.94;6281101;22;20434;-75
2022/11/27 06:08:37;;;;;;;;;;;;;;;4.94;95.49;102228.81;6281349;22;20476;-77
2022/11/27 06:11:17;;;;;;;11.57;3.92;;;;;;;4.92;95.62;102223.16;6281230;22;19998;-75
2022/11/27 06:13:45;;;;;;;7.85;3.10;;;;;;;4.92;95.60;102223.16;6281148;22;20047;-75
2022/11/27 06:16:15;;;;;;;5.22;3.60;;;;;;;4.91;95.80;102226.91;6280764;22;20019;-75
2022/11/27 06:18:42;;;;;;;5.38;3.33;;;;;;;4.91;95.99;102220.88;6280413;22;20495;-75
2022/11/27 06:21:11;;;;;;;4.63;3.20;;;;;;;4.91;95.99;102229.53;6280292;22;20024;-75
2022/11/27 06:23:38;;;;;;;7.85;3.28;;;;;;;4.91;96.03;102224.25;6280321;22;20094;-75
2022/11/27 06:26:16;;;;;;;7.90;3.47;;;;;;;4.91;96.05;102215.59;6280980;22;20456;-75
2022/11/27 06:28:43;;;;;;;7.20;2.95;;;;;;;4.90;95.90;102214.84;6280889;22;20047;-74
2022/11/27 06:31:13;;;;;;;9.18;3.28;;;;;;;4.91;96.22;102213.72;6280555;22;20020;-75
2022/11/27 06:33:46;;;;;;;8.85;3.65;;;;;;;4.91;96.31;102207.66;6280301;22;20095;-74
2022/11/27 06:36:14;;;;;;;5.97;3.05;;;;;;;4.90;96.35;102206.91;6280488;22;20461;-75
2022/11/27 06:38:41;;;;;;;4.43;3.13;;;;;;;4.89;96.50;102208.03;6280977;22;20048;-75
2022/11/27 06:41:14;;;;;;;5.00;3.17;;;;;;;4.89;96.52;102197.47;6280801;22;20020;-75
2022/11/27 06:43:41;;;;;;;3.47;2.53;;;;;;;4.89;96.57;102189.56;6281113;22;20078;-75
2022/11/27 06:46:11;;;;;;;5.32;2.78;;;;;;;4.90;96.80;102198.25;6281011;22;20043;-75
2022/11/27 06:48:38;;;;;;;6.15;3.03;;;;;;;4.90;96.36;102193.72;6279798;22;20018;-75
2022/11/27 06:51:06;;;;;;;6.75;3.50;;;;;;;4.90;96.68;102204.28;6280878;22;20091;-74
2022/11/27 06:53:35;;;;;;;8.57;3.33;;;;;;;4.91;96.81;102195.22;6280136;22;20016;-75
2022/11/27 06:56:04;;;;;;;12.10;3.10;;;;;;;4.91;96.59;102189.97;6280982;22;20047;-74
2022/11/27 06:58:30;;;;;;;3.88;3.30;;;;;;;4.91;96.70;102189.97;6280407;22;20446;-75
2022/11/27 07:00:58;;;;;;;4.57;3.40;;;;;;;4.92;97.02;102196.00;6280716;22;20020;-75
2022/11/27 07:03:26;;;;;;;7.45;3.60;;;;;;;4.92;96.75;102198.63;6279427;22;20024;-74
2022/11/27 07:05:53;;;;;;;6.90;2.80;;;;;;;4.91;96.62;102200.50;6280860;22;20421;-75
2022/11/27 07:08:21;;;;;;;5.82;3.20;;;;;;;4.92;96.64;102183.56;6280082;22;20051;-75
2022/11/27 07:10:48;;;;;;;7.72;3.53;;;;;;;4.92;96.96;102178.28;6253189;22;20031;-74
2022/11/27 07:13:14;;;;;;;7.45;3.30;;;;;;;4.92;96.77;102178.28;6280216;22;20019;-77
2022/11/27 07:15:41;;;;;;;9.65;2.85;;;;;;;4.93;96.90;102174.50;6280840;22;20012;-79
2022/11/27 07:18:08;;;;;;;6.47;3.13;;;;;;;4.92;97.33;102170.38;6252636;22;20087;-75
2022/11/27 07:20:35;;;;;;;4.60;2.80;;;;;;;4.92;97.30;102159.03;6253306;22;20055;-75
2022/11/27 07:23:01;;;;;;;5.10;3.13;;;;;;;4.92;97.75;102165.09;6280710;22;20103;-76
2022/11/27 07:25:28;;;;;;;4.57;3.03;;;;;;;4.92;97.60;102156.41;6279968;22;20914;-75
2022/11/27 07:27:55;;;;;;;6.15;2.80;;;;;;;4.92;98.12;102157.16;6280923;22;20016;-75
2022/11/27 07:30:21;;;;;;;6.45;3.38;;;;;;;4.91;97.91;102149.63;6279423;22;20103;-76
2022/11/27 07:32:47;;;;;;;6.80;2.97;;;;;;;4.91;98.24;102141.69;6280674;22;20048;-75
2022/11/27 07:35:14;;;;;;;9.82;3.40;;;;;;;4.91;98.42;102137.19;6280369;22;20442;-76
2022/11/27 07:37:41;;;;;;;5.43;3.05;;;;;;;4.91;98.68;102137.19;6280487;22;20024;-77
2022/11/27 07:40:08;;;;;;;5.10;3.20;;;;;;;4.91;98.71;102139.06;6280581;22;20028;-74
2022/11/27 07:42:34;;;;;;;9.15;3.28;;;;;;;4.91;98.97;102131.91;6279526;22;20091;-77
2022/11/27 07:45:06;;;;;;;7.47;3.10;;;;;;;4.91;99.32;102131.91;6252489;22;20104;-77
2022/11/27 07:47:32;;;;;;;7.47;3.17;;;;;;;4.90;99.03;102122.47;6279767;22;20528;-77
2022/11/27 07:49:59;;;;;;;3.53;2.63;;;;;;;4.90;99.85;102125.09;6253596;22;20070;-78
2022/11/27 07:52:26;;;;;;;7.50;3.20;;;;;;;4.91;99.73;102123.97;6278656;22;20008;-76
2022/11/27 07:54:53;;;;;;;3.83;3.05;;;;;;;4.91;99.96;102123.97;6280404;22;20023;-78
2022/11/27 07:57:19;;;;;;;6.82;2.95;;;;;;;4.91;99.84;102131.13;6253342;22;20137;-80
2022/11/27 07:59:46;;;;;;;6.40;2.90;;;;;;;4.93;100.00;102127.00;6227610;22;20512;-79
2022/11/27 08:02:13;;;;;;;5.47;3.40;;;;;;;4.92;100.00;102125.50;6250963;22;20462;-78
2022/11/27 08:04:40;;;;;;;4.32;2.92;;;;;;;4.94;100.00;102127.78;6251603;22;20016;-79
2022/11/27 08:07:07;;;;;;;10.13;3.55;;;;;;;4.94;100.00;102123.25;6278678;22;20083;-79
2022/11/27 08:09:33;;;;;;;7.35;3.40;;;;;;;4.94;100.00;102123.25;6278464;22;20024;-79
2022/11/27 08:12:00;;;;;;;6.03;3.35;;;;;;;4.95;100.00;102122.13;6281486;22;20043;-78
2022/11/27 08:14:26;;;;;;;4.72;3.08;;;;;;;4.98;100.00;102115.38;6280206;22;20345;-79
2022/11/27 08:16:53;;;;;;;8.48;3.72;;;;;;;4.97;100.00;102114.59;6280590;22;20413;-77
2022/11/27 08:19:19;;;;;;;3.97;3.20;;;;;;;4.99;100.00;102115.00;6280041;22;20024;-79
2022/11/27 08:21:46;;;;;;;9.88;3.33;;;;;;;4.99;100.00;102107.06;6253212;22;20016;-78
2022/11/27 08:24:12;;;;;;;10.65;3.38;;;;;;;5.00;100.00;102108.59;6281129;22;20349;-78
2022/11/27 08:26:39;;;;;;;8.52;3.58;;;;;;;5.01;100.00;102106.72;6281173;22;20059;-77
2022/11/27 08:29:06;;;;;;;7.10;3.35;;;;;;;5.04;100.00;102105.97;6280364;22;20016;-77
2022/11/27 08:31:32;;;;;;;6.85;3.78;;;;;;;5.06;100.00;102103.72;6280644;22;20354;-77
2022/11/27 08:33:59;;;;;;;8.15;3.92;;;;;;;5.08;100.00;102111.28;6281009;22;20031;-77
2022/11/27 08:36:26;;;;;;;8.65;3.42;;;;;;;5.08;100.00;102108.66;6280544;22;20096;-74
2022/11/27 08:38:53;;;;;;;6.43;3.08;;;;;;;5.09;100.00;102112.78;6280855;22;20020;-76
2022/11/27 08:41:20;;;;;;;5.80;3.42;;;;;;;5.12;100.00;102112.06;6280625;22;20012;-78
2022/11/27 08:43:47;;;;;;;6.90;3.60;;;;;;;5.15;100.00;102111.34;6252850;22;20501;-78
2022/11/27 08:46:14;;;;;;;3.47;3.17;;;;;;;5.16;100.00;102110.97;6280493;22;20486;-79
2022/11/27 08:48:41;;;;;;;4.55;3.45;;;;;;;5.17;100.00;102112.47;6280665;22;20016;-79
2022/11/27 08:51:10;;;;;;;6.90;3.50;;;;;;;5.17;100.00;102107.19;6253835;22;20017;-78
2022/11/27 08:53:36;;;;;;;7.82;3.75;;;;;;;5.18;100.00;102106.06;6280523;22;20446;-78
2022/11/27 08:56:25;;;;;;;5.80;3.42;;;;;;;5.19;100.00;102104.94;6280443;22;20012;-78
2022/11/27 08:58:52;;;;;;;9.52;3.30;;;;;;;5.21;100.00;102101.91;6280098;22;20039;-76
2022/11/27 09:01:24;;;;;;;6.63;3.78;;;;;;;5.23;100.00;102116.25;6280048;22;20016;-76
2022/11/27 09:03:51;;;;;;;3.78;3.22;;;;;;;5.24;100.00;102115.13;6280724;22;20031;-77
2022/11/27 09:06:22;;;;;;;4.53;3.72;;;;;;;5.25;100.00;102118.53;6252723;22;20055;-76
2022/11/27 09:08:49;;;;;;;9.00;4.30;;;;;;;5.26;100.00;102110.25;6253046;22;20024;-76
2022/11/27 09:11:18;;;;;;;8.20;3.97;;;;;;;5.27;100.00;102113.63;6280128;22;20091;-76
2022/11/27 09:13:45;;;;;;;4.78;3.80;;;;;;;5.29;100.00;102108.75;6280205;22;20017;-78
2022/11/27 09:16:14;;;;;;;4.50;3.58;;;;;;;5.31;100.00;102103.84;6280557;22;20037;-78
2022/11/27 09:18:44;;;;;;;7.93;3.75;;;;;;;5.30;100.00;102097.81;6280538;22;20020;-78
2022/11/27 09:21:12;;;;;;;7.43;3.95;;;;;;;5.32;100.00;102100.09;6253524;22;20012;-78
2022/11/27 09:23:39;;;;;;;5.97;4.00;;;;;;;5.34;100.00;102100.47;6280485;22;20099;-78
2022/11/27 09:26:08;;;;;;;6.00;4.47;;;;;;;5.35;100.00;102097.47;6280766;22;20016;-78
2022/11/27 09:28:37;;;;;;;6.45;4.47;;;;;;;5.36;100.00;102106.16;6279702;22;20454;-78
2022/11/27 09:31:05;;;;;;;11.25;4.55;;;;;;;5.38;100.00;102098.63;6280374;22;20091;-78
2022/11/27 09:33:33;;;;;;;6.97;3.88;;;;;;;5.40;100.00;102093.72;6280307;22;20043;-78
2022/11/27 09:36:11;;;;;;;6.60;4.28;;;;;;;5.43;100.00;102092.97;6280543;22;20016;-78
2022/11/27 09:38:38;;;;;;;6.25;4.28;;;;;;;5.45;100.00;102096.00;6253079;22;20115;-78
2022/11/27 09:41:10;;;;;;;4.95;4.28;;;;;;;5.49;100.00;102090.75;6279797;22;20017;-78
2022/11/27 09:43:46;;;;;;;6.88;4.53;;;;;;;5.49;100.00;102094.16;6279639;22;20016;-78
2022/11/27 09:46:28;;;;;;;12.63;4.72;;;;;;;5.52;100.00;102097.94;6252984;22;20480;-78
2022/11/27 09:48:59;;;;;;;6.20;3.97;;;;;;;5.52;100.00;102082.09;6278854;22;20092;-79
2022/11/27 09:51:32;;;;;;;7.97;4.77;;;;;;;5.56;100.00;102075.69;6280245;22;20238;-77
2022/11/27 09:54:07;;;;;;;7.40;4.72;;;;;;;5.58;100.00;102081.34;6280758;22;20417;-77
2022/11/27 09:56:35;;;;;;;18.58;4.53;;;;;;;5.61;100.00;102072.66;6279831;22;20070;-77
2022/11/27 09:59:04;;;;;;;6.55;4.47;;;;;;;5.63;100.00;102067.00;6282068;22;20052;-77
2022/11/27 10:01:32;;;;;;;11.85;4.97;;;;;;;5.65;100.00;102065.50;6281583;22;20051;-75
2022/11/27 10:04:13;;;;;;;7.47;4.38;;;;;;;5.68;100.00;102072.69;6281639;22;20027;-74
2022/11/27 10:07:03;;;;;;;10.93;4.57;;;;;;;5.71;100.00;102063.25;6281797;22;20087;-75
2022/11/27 10:09:50;;;;;;;10.68;4.95;;;;;;;5.73;100.00;102063.66;6281514;22;20097;-75
2022/11/27 10:12:29;;;;;;;11.25;5.00;;;;;;;5.75;100.00;102060.63;6254109;22;20424;-75
2022/11/27 10:15:17;;;;;;;8.77;4.20;;;;;;;5.78;100.00;102047.44;6281861;22;20442;-75
2022/11/27 10:17:58;;;;;;;6.47;4.15;;;;;;;5.81;100.00;102046.69;6281629;22;20009;-78
2022/11/27 10:20:27;;;;;;;9.00;4.82;;;;;;;5.83;100.00;102047.06;6281547;22;20020;-75
2022/11/27 10:23:40;;;;;;;6.80;5.10;;;;;;;5.86;100.00;102050.84;6281838;22;20016;-75
2022/11/27 10:26:16;;;;;;;6.82;4.50;;;;;;;5.92;100.00;102041.47;6281442;22;20103;-74
2022/11/27 10:29:08;;;;;;;8.00;4.30;;;;;;;5.93;100.00;102038.44;6281654;22;20012;-74
2022/11/27 10:31:42;;;;;;;7.28;4.78;;;;;;;5.93;100.00;102022.56;6281360;22;20016;-75
2022/11/27 10:34:23;;;;;;;7.07;4.75;;;;;;;5.95;100.00;102033.53;6281374;22;20087;-75
2022/11/27 10:36:52;;;;;;;8.07;5.43;;;;;;;5.95;100.00;102030.13;6281541;22;20020;-75
2022/11/27 10:39:29;;;;;;;8.38;5.13;;;;;;;5.98;100.00;102034.66;6280618;22;20008;-74
2022/11/27 10:42:06;;;;;;;13.40;5.40;;;;;;;5.98;100.00;102027.50;6281396;22;20095;-76
2022/11/27 10:44:37;;;;;;;8.48;4.70;;;;;;;5.99;100.00;102026.38;6281689;22;20096;-75
2022/11/27 10:47:09;;;;;;;7.68;5.32;;;;;;;6.02;100.00;102022.19;6281793;22;20013;-75
2022/11/27 10:49:39;;;;;;;8.02;5.00;;;;;;;6.06;100.00;102022.94;6281141;22;20019;-75
2022/11/27 10:52:11;;;;;;;8.25;4.70;;;;;;;6.09;100.00;102008.97;6281507;22;20044;-75
2022/11/27 10:54:38;;;;;;;6.43;4.57;;;;;;;6.13;100.00;102007.09;6280534;22;20082;-76
2022/11/27 10:57:20;;;;;;;7.93;4.90;;;;;;;6.18;100.00;102000.69;6281656;22;20023;-76
2022/11/27 10:59:53;;;;;;;7.40;5.07;;;;;;;6.22;100.00;101994.25;6281371;22;20020;-77
2022/11/27 11:02:29;;;;;;;7.25;5.22;;;;;;;6.25;100.00;101990.09;6281979;22;20016;-77
2022/11/27 11:04:56;;;;;;;7.30;5.70;;;;;;;6.29;100.00;101983.69;6254271;22;20016;-77
2022/11/27 11:07:54;;;;;;;8.60;5.60;;;;;;;6.34;100.00;101987.84;6281344;22;20417;-77
2022/11/27 11:10:37;;;;;;;11.30;5.00;;;;;;;6.36;99.69;101974.97;6281098;22;20047;-76
2022/11/27 11:13:17;;;;;;;16.17;6.00;;;;;;;6.37;99.51;101970.44;6282830;22;20095;-76
2022/11/27 11:15:58;;;;;;;10.35;5.22;;;;;;;6.41;99.67;101971.19;6254605;22;20023;-77
2022/11/27 11:18:33;;;;;;;7.97;5.57;;;;;;;6.45;99.52;101970.03;6281442;22;20012;-76
2022/11/27 11:21:06;;;;;;;11.63;5.75;;;;;;;6.47;99.19;101967.78;6281500;22;20452;-77
2022/11/27 11:23:35;;;;;;;12.07;6.65;;;;;;;6.49;98.43;101959.44;6280375;22;20515;-77
2022/11/27 11:26:07;;;;;;;6.68;6.05;;;;;;;6.50;98.60;101961.72;6281401;22;20420;-78
2022/11/27 11:28:45;;;;;;;6.18;5.57;;;;;;;6.56;98.44;101952.25;6281158;22;20013;-78
2022/11/27 11:31:17;;;;;;;10.60;5.85;;;;;;;6.61;98.45;101940.53;6280872;22;20083;-77
2022/11/27 11:34:21;;;;;;;10.68;5.32;;;;;;;6.67;98.10;101929.19;6281251;22;20016;-77
2022/11/27 11:37:00;;;;;;;7.35;5.45;;;;;;;6.73;97.65;101934.06;6202127;22;20016;-78
2022/11/27 11:39:44;;;;;;;13.95;7.32;;;;;;;6.77;97.97;101924.25;6281286;22;20016;-78
2022/11/27 11:42:31;;;;;;;10.55;6.13;;;;;;;6.79;97.46;101930.66;6281104;22;20024;-77
2022/11/27 11:45:15;;;;;;;11.23;5.95;;;;;;;6.81;96.81;101928.34;6254448;22;20021;-77